Eight Mile, Alabama
Current Conditions -  °F | °C
As of 6:56 AM on Friday 19 Dec 2014 (Local Time) from KMOB Reporting Station
Light Rain Light Rain  
Wind Chill: 11°   Ceiling: 3100
Heat Index: 11°   Visibility: 7mi
Dew Point:   Wind: 14mph
Humidity: 71%   Direction: 60°ENE
Pressure: 30.13"   Gusts: NA
Location:  30.76°N, 88.13°W
Report Text: KMOB 191256Z 06012KT 7SM -RA BKN031 OVC060 11/06 A3013 RMK AO2 RAB55 SLP202 P0000 T01060056
Loading
Personal Weather Stations






























Interactive Weather Map New forecast layout! Learn more

10-Day Weather Forecast

Advertisements
Track Severe Weather on mobile